Terminal Aerodrome Forecast
Issued by NWS

Home | Current Version | Previous Version | Text Only | Print | Product List | Glossary On
Versions: 1 2 3 4 5 6 7 8 9 10 11 12 13 14 15 16 17 18 19 20 21 22 23 24 25 26 27 28 29 30
000
FTUS43 KDLH 230540 AAA
TAFHIB
TAF AMD
KHIB 230540Z 2306/2406 35004KT P6SM VCSH BKN035
      TEMPO 2306/2308 1SM BR
     FM230800 36003KT 4SM BR OVC015
     FM231300 01006KT 2SM BR VCSH OVC007
     FM231600 03009KT P6SM VCSH BKN015
     FM231900 03011G18KT P6SM VCSH BKN025
     FM240100 04005KT P6SM OVC015=

USA.gov is the U.S. government's official web portal to all federal, state and local government web resources and services.